< Cyclone 196802 1968 Season Cyclone 196805 >
Cyclone 196803 (UNNAMED)
General InformationTrack Information on Google Maps || ResourceGoogle EarthGE AnimationAtom FeedGeoJSON
Detalied Best Track (Time Zone = UTC)
Year Month Day Hour Lat. Long. Pressure (hPa) Wind (kt) Class Image Chart
1967 12 9 17 -24.8 154.5 1003 0 0 -- --
1967 12 9 20 -25.3 155.2 1003 0 0 -- --
1967 12 9 23 -25.9 155.8 1002 0 0 -- --
1967 12 10 02 -26.1 156.0 999 0 0 -- --
1967 12 10 05 -26.3 156.3 998 0 0 -- --
1967 12 10 08 -26.5 156.4 997 0 0 -- --
1967 12 10 11 -26.7 156.6 999 0 0 -- --
1967 12 10 14 -27.0 156.8 999 0 0 -- --
1967 12 10 17 -27.2 157.0 1000 0 0 -- --
1967 12 10 20 -27.3 157.3 1000 0 0 -- --
1967 12 10 23 -27.4 157.6 1000 0 0 -- --
1967 12 11 02 -27.4 157.8 998 0 0 -- --
1967 12 11 05 -27.3 158.1 1000 0 0 -- --
1967 12 11 08 -27.2 158.5 1000 0 0 -- --
1967 12 11 11 -26.6 158.8 1000 0 0 -- --
1967 12 11 14 -26.1 158.9 1002 0 0 -- --
1967 12 11 17 -25.3 158.8 1001 0 0 -- --
1967 12 11 20 -24.3 158.3 1003 0 0 -- --
1967 12 11 23 -23.3 157.6 1003 0 0 -- --
1967 12 12 02 -22.6 156.8 1003 0 0 -- --
1967 12 12 05 -21.8 156.4 1003 0 0 -- --
< Cyclone 196802 1968 Season Cyclone 196805 >

Help